Accueil
METAR-TAF:

METAR-TAF

Aéroports :

Cervia, Italie

latitude: 44-13N, longitude: 012-18E, altitude: 6 m

Observation

Le bulletin a été fait il y a 1 heure et 11 minutes, à 20:55 UTC
Vent 3 kt de ouest/nord-ouest
Température 7°C
Humidité 93%
Pression 1021 hPa
Visibilité: 0500 m
Nuages épars à une hauteur de 200 ft
brouillard

METAR: LIPC 242055Z 29003KT 0500 R11/1200 FG SCT002 07/06 Q1021

Heure: 23:06 (22:06 UTC)

Prévision

Le bulletin a été fait il y a 2 heures et 6 minutes, à 20:00 UTC
Prévision valable du 24 à 21 UTC au 25 à 06 UTC
Vent 3 kt de direction variable
Visibilité: 1200 m
Nuages épars à une hauteur de 500 ft
Nuages épars à une hauteur de 2000 ft
brume
Temporairement
du 24 à 21 UTC au 25 à 06 UTC
Visibilité: 0300 m
Nuages fragmentés à une hauteur de 300 ft
brouillard

TAF: LIPC 242000Z 2421/2506 VRB03KT 1200 BR SCT005 SCT020 TEMPO 2421/2506 0300 FG BKN003

Observations et prévisions météorologiques de plus de 4000 aéroports (messages METAR et TAF).

Les stations disponibles sont représentées par des disques jaunes et rouges sur la carte.

Passer la souris dessus pour voir le nom de la station.

Cliquer dessus pour voir les observations et prévisions météorologiques.

Pour changer de carte: cliquez sur les boutons verts avec une croix noire pour zoomer, sur le bouton vert avec un tiret pour effectuer un zoom arrière, ou sur les flèches vertes pour les cartes adjacentes.


METAR-TAF: